sensor_id;sensor_type;location;lat;lon;timestamp;temperature;humidity
30206;DHT22;17010;51.306;3.150;2022-09-09T00:06:21;15.90;99.90
30206;DHT22;17010;51.306;3.150;2022-09-09T00:11:21;15.90;99.90
30206;DHT22;17010;51.306;3.150;2022-09-09T00:13:52;15.90;99.90
30206;DHT22;17010;51.306;3.150;2022-09-09T00:16:28;15.90;99.90
30206;DHT22;17010;51.306;3.150;2022-09-09T00:21:38;15.80;99.90
30206;DHT22;17010;51.306;3.150;2022-09-09T00:24:24;15.80;99.90
30206;DHT22;17010;51.306;3.150;2022-09-09T00:26:56;15.80;99.90
30206;DHT22;17010;51.306;3.150;2022-09-09T00:29:45;15.70;99.90
30206;DHT22;17010;51.306;3.150;2022-09-09T00:32:16;15.70;99.90
30206;DHT22;17010;51.306;3.150;2022-09-09T00:35:28;15.70;99.90
30206;DHT22;17010;51.306;3.150;2022-09-09T00:38:03;15.70;99.90
30206;DHT22;17010;51.306;3.150;2022-09-09T00:40:37;15.70;99.90
30206;DHT22;17010;51.306;3.150;2022-09-09T00:43:30;15.70;99.90
30206;DHT22;17010;51.306;3.150;2022-09-09T00:59:51;15.60;99.90
30206;DHT22;17010;51.306;3.150;2022-09-09T01:02:29;15.60;99.90
30206;DHT22;17010;51.306;3.150;2022-09-09T01:05:05;15.70;99.90
30206;DHT22;17010;51.306;3.150;2022-09-09T01:07:33;15.70;99.90
30206;DHT22;17010;51.306;3.150;2022-09-09T01:10:03;15.60;99.90
30206;DHT22;17010;51.306;3.150;2022-09-09T01:12:42;15.60;99.90
30206;DHT22;17010;51.306;3.150;2022-09-09T01:15:20;15.60;99.90
30206;DHT22;17010;51.306;3.150;2022-09-09T01:20:24;15.60;99.90
30206;DHT22;17010;51.306;3.150;2022-09-09T01:28:13;15.60;99.90
30206;DHT22;17010;51.306;3.150;2022-09-09T01:30:42;15.50;99.90
30206;DHT22;17010;51.306;3.150;2022-09-09T01:33:14;15.50;99.90
30206;DHT22;17010;51.306;3.150;2022-09-09T01:36:01;15.50;99.90
30206;DHT22;17010;51.306;3.150;2022-09-09T01:38:29;15.50;99.90
30206;DHT22;17010;51.306;3.150;2022-09-09T01:40:57;15.50;99.90
30206;DHT22;17010;51.306;3.150;2022-09-09T01:43:24;15.60;99.90
30206;DHT22;17010;51.306;3.150;2022-09-09T01:45:53;15.50;99.90
30206;DHT22;17010;51.306;3.150;2022-09-09T01:48:21;15.50;99.90
30206;DHT22;17010;51.306;3.150;2022-09-09T01:50:48;15.50;99.90
30206;DHT22;17010;51.306;3.150;2022-09-09T01:53:15;15.50;99.90
30206;DHT22;17010;51.306;3.150;2022-09-09T01:55:47;15.50;99.90
30206;DHT22;17010;51.306;3.150;2022-09-09T02:01:08;15.50;99.90
30206;DHT22;17010;51.306;3.150;2022-09-09T02:03:39;15.50;99.90
30206;DHT22;17010;51.306;3.150;2022-09-09T02:08:52;15.40;99.90
30206;DHT22;17010;51.306;3.150;2022-09-09T02:11:21;15.50;99.90
30206;DHT22;17010;51.306;3.150;2022-09-09T02:13:48;15.50;99.90
30206;DHT22;17010;51.306;3.150;2022-09-09T02:21:19;15.50;99.90
30206;DHT22;17010;51.306;3.150;2022-09-09T02:23:46;15.50;99.90
30206;DHT22;17010;51.306;3.150;2022-09-09T02:26:14;15.60;99.90
30206;DHT22;17010;51.306;3.150;2022-09-09T02:28:46;15.60;99.90
30206;DHT22;17010;51.306;3.150;2022-09-09T02:31:14;15.60;99.90
30206;DHT22;17010;51.306;3.150;2022-09-09T02:33:44;15.60;99.90
30206;DHT22;17010;51.306;3.150;2022-09-09T02:36:12;15.60;99.90
30206;DHT22;17010;51.306;3.150;2022-09-09T02:38:46;15.60;99.90
30206;DHT22;17010;51.306;3.150;2022-09-09T02:41:20;15.60;99.90
30206;DHT22;17010;51.306;3.150;2022-09-09T02:43:48;15.60;99.90
30206;DHT22;17010;51.306;3.150;2022-09-09T02:49:43;15.50;99.90
30206;DHT22;17010;51.306;3.150;2022-09-09T02:52:01;15.50;99.90
30206;DHT22;17010;51.306;3.150;2022-09-09T02:54:30;15.50;99.90
30206;DHT22;17010;51.306;3.150;2022-09-09T02:59:31;15.50;99.90
30206;DHT22;17010;51.306;3.150;2022-09-09T03:01:57;15.50;99.90
30206;DHT22;17010;51.306;3.150;2022-09-09T03:04:23;15.50;99.90
30206;DHT22;17010;51.306;3.150;2022-09-09T03:06:50;15.50;99.90
30206;DHT22;17010;51.306;3.150;2022-09-09T03:09:16;15.50;99.90
30206;DHT22;17010;51.306;3.150;2022-09-09T03:11:43;15.40;99.90
30206;DHT22;17010;51.306;3.150;2022-09-09T03:14:09;15.40;99.90
30206;DHT22;17010;51.306;3.150;2022-09-09T03:16:37;15.40;99.90
30206;DHT22;17010;51.306;3.150;2022-09-09T03:19:03;15.40;99.90
30206;DHT22;17010;51.306;3.150;2022-09-09T03:21:29;15.40;99.90
30206;DHT22;17010;51.306;3.150;2022-09-09T03:23:55;15.40;99.90
30206;DHT22;17010;51.306;3.150;2022-09-09T03:26:23;15.30;99.90
30206;DHT22;17010;51.306;3.150;2022-09-09T03:28:49;15.30;99.90
30206;DHT22;17010;51.306;3.150;2022-09-09T03:31:18;15.30;99.90
30206;DHT22;17010;51.306;3.150;2022-09-09T03:33:45;15.30;99.90
30206;DHT22;17010;51.306;3.150;2022-09-09T03:36:11;15.30;99.90
30206;DHT22;17010;51.306;3.150;2022-09-09T03:38:37;15.30;99.90
30206;DHT22;17010;51.306;3.150;2022-09-09T03:41:03;15.30;99.90
30206;DHT22;17010;51.306;3.150;2022-09-09T03:43:32;15.30;99.90
30206;DHT22;17010;51.306;3.150;2022-09-09T03:45:58;15.20;99.90
30206;DHT22;17010;51.306;3.150;2022-09-09T03:48:24;15.20;99.90
30206;DHT22;17010;51.306;3.150;2022-09-09T03:50:52;15.20;99.90
30206;DHT22;17010;51.306;3.150;2022-09-09T03:53:20;15.20;99.90
30206;DHT22;17010;51.306;3.150;2022-09-09T03:55:52;15.10;99.90
30206;DHT22;17010;51.306;3.150;2022-09-09T03:58:21;15.10;99.90
30206;DHT22;17010;51.306;3.150;2022-09-09T04:00:58;15.10;99.90
30206;DHT22;17010;51.306;3.150;2022-09-09T04:03:25;15.10;99.90
30206;DHT22;17010;51.306;3.150;2022-09-09T04:05:55;15.10;99.90
30206;DHT22;17010;51.306;3.150;2022-09-09T04:08:22;15.10;99.90
30206;DHT22;17010;51.306;3.150;2022-09-09T04:10:49;15.00;99.90
30206;DHT22;17010;51.306;3.150;2022-09-09T04:13:16;15.00;99.90
30206;DHT22;17010;51.306;3.150;2022-09-09T04:15:44;15.00;99.90
30206;DHT22;17010;51.306;3.150;2022-09-09T04:18:11;15.00;99.90
30206;DHT22;17010;51.306;3.150;2022-09-09T04:20:38;15.00;99.90
30206;DHT22;17010;51.306;3.150;2022-09-09T04:23:04;15.00;99.90
30206;DHT22;17010;51.306;3.150;2022-09-09T04:25:31;15.00;99.90
30206;DHT22;17010;51.306;3.150;2022-09-09T04:27:58;15.00;99.90
30206;DHT22;17010;51.306;3.150;2022-09-09T04:30:24;15.00;99.90
30206;DHT22;17010;51.306;3.150;2022-09-09T04:32:51;15.00;99.90
30206;DHT22;17010;51.306;3.150;2022-09-09T04:35:17;15.00;99.90
30206;DHT22;17010;51.306;3.150;2022-09-09T04:37:46;15.10;99.90
30206;DHT22;17010;51.306;3.150;2022-09-09T04:40:12;15.00;99.90
30206;DHT22;17010;51.306;3.150;2022-09-09T04:42:39;15.10;99.90
30206;DHT22;17010;51.306;3.150;2022-09-09T04:45:06;15.10;99.90
30206;DHT22;17010;51.306;3.150;2022-09-09T04:47:37;15.10;99.90
30206;DHT22;17010;51.306;3.150;2022-09-09T04:50:03;15.10;99.90
30206;DHT22;17010;51.306;3.150;2022-09-09T04:52:29;15.10;99.90
30206;DHT22;17010;51.306;3.150;2022-09-09T04:54:55;15.10;99.90
30206;DHT22;17010;51.306;3.150;2022-09-09T04:57:21;15.20;99.90
30206;DHT22;17010;51.306;3.150;2022-09-09T04:59:47;15.10;99.90
30206;DHT22;17010;51.306;3.150;2022-09-09T05:02:14;15.10;99.90
30206;DHT22;17010;51.306;3.150;2022-09-09T05:04:40;15.10;99.90
30206;DHT22;17010;51.306;3.150;2022-09-09T05:07:06;15.10;99.90
30206;DHT22;17010;51.306;3.150;2022-09-09T05:09:32;15.10;99.90
30206;DHT22;17010;51.306;3.150;2022-09-09T05:11:58;15.00;99.90
30206;DHT22;17010;51.306;3.150;2022-09-09T05:14:25;15.00;99.90
30206;DHT22;17010;51.306;3.150;2022-09-09T05:16:52;15.00;99.90
30206;DHT22;17010;51.306;3.150;2022-09-09T05:19:18;15.00;99.90
30206;DHT22;17010;51.306;3.150;2022-09-09T05:21:45;15.10;99.90
30206;DHT22;17010;51.306;3.150;2022-09-09T05:24:11;15.10;99.90
30206;DHT22;17010;51.306;3.150;2022-09-09T05:26:37;15.10;99.90
30206;DHT22;17010;51.306;3.150;2022-09-09T05:29:04;15.20;99.90
30206;DHT22;17010;51.306;3.150;2022-09-09T05:31:30;15.20;99.90
30206;DHT22;17010;51.306;3.150;2022-09-09T05:33:57;15.20;99.90
30206;DHT22;17010;51.306;3.150;2022-09-09T05:36:23;15.20;99.90
30206;DHT22;17010;51.306;3.150;2022-09-09T05:38:49;15.20;99.90
30206;DHT22;17010;51.306;3.150;2022-09-09T05:41:16;15.20;99.90
30206;DHT22;17010;51.306;3.150;2022-09-09T05:43:43;15.20;99.90
30206;DHT22;17010;51.306;3.150;2022-09-09T05:46:12;15.30;99.90
30206;DHT22;17010;51.306;3.150;2022-09-09T05:48:40;15.30;99.90
30206;DHT22;17010;51.306;3.150;2022-09-09T05:51:09;15.30;99.90
30206;DHT22;17010;51.306;3.150;2022-09-09T05:53:38;15.30;99.90
30206;DHT22;17010;51.306;3.150;2022-09-09T05:56:06;15.30;99.90
30206;DHT22;17010;51.306;3.150;2022-09-09T05:58:34;15.30;99.90
30206;DHT22;17010;51.306;3.150;2022-09-09T06:01:07;15.30;99.90
30206;DHT22;17010;51.306;3.150;2022-09-09T06:03:38;15.30;99.90
30206;DHT22;17010;51.306;3.150;2022-09-09T06:06:07;15.40;99.90
30206;DHT22;17010;51.306;3.150;2022-09-09T06:08:34;15.40;99.90
30206;DHT22;17010;51.306;3.150;2022-09-09T06:11:14;15.40;99.90
30206;DHT22;17010;51.306;3.150;2022-09-09T06:13:40;15.40;99.90
30206;DHT22;17010;51.306;3.150;2022-09-09T06:16:17;15.40;99.90
30206;DHT22;17010;51.306;3.150;2022-09-09T06:18:44;15.50;99.90
30206;DHT22;17010;51.306;3.150;2022-09-09T06:21:18;15.60;99.90
30206;DHT22;17010;51.306;3.150;2022-09-09T06:23:45;15.70;99.90
30206;DHT22;17010;51.306;3.150;2022-09-09T06:26:15;15.90;99.90
30206;DHT22;17010;51.306;3.150;2022-09-09T06:28:45;16.00;99.90
30206;DHT22;17010;51.306;3.150;2022-09-09T06:31:12;16.20;99.90
30206;DHT22;17010;51.306;3.150;2022-09-09T06:33:40;16.30;99.90
30206;DHT22;17010;51.306;3.150;2022-09-09T06:36:12;16.40;99.90
30206;DHT22;17010;51.306;3.150;2022-09-09T06:38:38;16.40;99.90
30206;DHT22;17010;51.306;3.150;2022-09-09T06:41:04;16.30;99.90
30206;DHT22;17010;51.306;3.150;2022-09-09T06:43:32;16.10;99.90
30206;DHT22;17010;51.306;3.150;2022-09-09T06:46:00;16.00;99.90
30206;DHT22;17010;51.306;3.150;2022-09-09T06:48:27;15.90;99.90
30206;DHT22;17010;51.306;3.150;2022-09-09T06:51:11;15.80;99.90
30206;DHT22;17010;51.306;3.150;2022-09-09T06:53:38;15.70;99.90
30206;DHT22;17010;51.306;3.150;2022-09-09T06:58:39;15.70;99.90
30206;DHT22;17010;51.306;3.150;2022-09-09T07:01:12;15.70;99.90
30206;DHT22;17010;51.306;3.150;2022-09-09T07:03:39;15.70;99.90
30206;DHT22;17010;51.306;3.150;2022-09-09T07:06:06;15.70;99.90
30206;DHT22;17010;51.306;3.150;2022-09-09T07:08:33;15.70;99.90
30206;DHT22;17010;51.306;3.150;2022-09-09T07:11:04;15.70;99.90
30206;DHT22;17010;51.306;3.150;2022-09-09T07:13:31;15.80;99.90
30206;DHT22;17010;51.306;3.150;2022-09-09T07:16:08;15.80;99.90
30206;DHT22;17010;51.306;3.150;2022-09-09T07:18:34;15.80;99.90
30206;DHT22;17010;51.306;3.150;2022-09-09T07:21:01;15.70;99.90
30206;DHT22;17010;51.306;3.150;2022-09-09T07:23:28;15.80;99.90
30206;DHT22;17010;51.306;3.150;2022-09-09T07:25:54;15.80;99.90
30206;DHT22;17010;51.306;3.150;2022-09-09T07:28:21;15.90;99.90
30206;DHT22;17010;51.306;3.150;2022-09-09T07:30:58;16.00;99.90
30206;DHT22;17010;51.306;3.150;2022-09-09T07:33:25;15.90;99.90
30206;DHT22;17010;51.306;3.150;2022-09-09T07:35:52;15.90;99.90
30206;DHT22;17010;51.306;3.150;2022-09-09T07:38:19;15.90;99.90
30206;DHT22;17010;51.306;3.150;2022-09-09T07:40:46;16.00;99.90
30206;DHT22;17010;51.306;3.150;2022-09-09T07:43:12;16.00;99.90
30206;DHT22;17010;51.306;3.150;2022-09-09T07:45:38;16.10;99.90
30206;DHT22;17010;51.306;3.150;2022-09-09T07:48:06;16.20;99.90
30206;DHT22;17010;51.306;3.150;2022-09-09T07:50:32;16.20;99.90
30206;DHT22;17010;51.306;3.150;2022-09-09T07:52:58;16.20;99.90
30206;DHT22;17010;51.306;3.150;2022-09-09T07:55:25;16.20;99.90
30206;DHT22;17010;51.306;3.150;2022-09-09T07:57:55;16.30;99.90
30206;DHT22;17010;51.306;3.150;2022-09-09T08:00:21;16.30;99.90
30206;DHT22;17010;51.306;3.150;2022-09-09T08:02:48;16.40;99.90
30206;DHT22;17010;51.306;3.150;2022-09-09T08:05:14;16.60;99.90
30206;DHT22;17010;51.306;3.150;2022-09-09T08:07:40;16.60;99.90
30206;DHT22;17010;51.306;3.150;2022-09-09T08:10:07;16.70;99.90
30206;DHT22;17010;51.306;3.150;2022-09-09T08:12:33;16.80;99.90
30206;DHT22;17010;51.306;3.150;2022-09-09T08:14:59;16.90;99.90
30206;DHT22;17010;51.306;3.150;2022-09-09T08:17:26;17.00;99.90
30206;DHT22;17010;51.306;3.150;2022-09-09T08:19:52;17.30;99.90
30206;DHT22;17010;51.306;3.150;2022-09-09T08:22:19;17.60;99.90
30206;DHT22;17010;51.306;3.150;2022-09-09T08:24:46;17.70;99.90
30206;DHT22;17010;51.306;3.150;2022-09-09T08:27:13;17.70;99.90
30206;DHT22;17010;51.306;3.150;2022-09-09T08:29:39;17.60;99.90
30206;DHT22;17010;51.306;3.150;2022-09-09T08:32:05;17.60;99.90
30206;DHT22;17010;51.306;3.150;2022-09-09T08:34:31;17.60;99.90
30206;DHT22;17010;51.306;3.150;2022-09-09T08:36:58;17.60;99.90
30206;DHT22;17010;51.306;3.150;2022-09-09T08:39:24;17.80;99.90
30206;DHT22;17010;51.306;3.150;2022-09-09T08:47:06;18.60;99.90
30206;DHT22;17010;51.306;3.150;2022-09-09T08:50:11;19.10;99.90
30206;DHT22;17010;51.306;3.150;2022-09-09T08:52:48;19.60;99.90
30206;DHT22;17010;51.306;3.150;2022-09-09T08:58:23;20.10;99.90
30206;DHT22;17010;51.306;3.150;2022-09-09T09:03:57;19.50;99.90
30206;DHT22;17010;51.306;3.150;2022-09-09T09:09:28;18.90;99.90
30206;DHT22;17010;51.306;3.150;2022-09-09T09:11:58;18.80;99.90
30206;DHT22;17010;51.306;3.150;2022-09-09T09:14:31;18.60;99.90
30206;DHT22;17010;51.306;3.150;2022-09-09T09:17:02;18.50;99.90
30206;DHT22;17010;51.306;3.150;2022-09-09T09:19:33;18.60;99.90
30206;DHT22;17010;51.306;3.150;2022-09-09T09:25:05;18.90;99.90
30206;DHT22;17010;51.306;3.150;2022-09-09T09:30:57;18.80;99.90
30206;DHT22;17010;51.306;3.150;2022-09-09T09:36:02;18.40;99.90
30206;DHT22;17010;51.306;3.150;2022-09-09T09:38:29;18.40;99.90
30206;DHT22;17010;51.306;3.150;2022-09-09T09:40:57;18.40;99.90
30206;DHT22;17010;51.306;3.150;2022-09-09T09:43:26;18.40;99.90
30206;DHT22;17010;51.306;3.150;2022-09-09T09:45:53;18.40;99.90
30206;DHT22;17010;51.306;3.150;2022-09-09T09:48:19;18.40;99.90
30206;DHT22;17010;51.306;3.150;2022-09-09T09:50:56;18.40;99.90
30206;DHT22;17010;51.306;3.150;2022-09-09T09:53:30;18.30;99.90
30206;DHT22;17010;51.306;3.150;2022-09-09T09:58:38;18.30;99.90
30206;DHT22;17010;51.306;3.150;2022-09-09T10:01:27;18.30;99.90
30206;DHT22;17010;51.306;3.150;2022-09-09T10:04:18;18.40;99.90
30206;DHT22;17010;51.306;3.150;2022-09-09T10:06:46;18.50;99.90
30206;DHT22;17010;51.306;3.150;2022-09-09T10:09:29;18.50;99.90
30206;DHT22;17010;51.306;3.150;2022-09-09T10:14:44;18.40;99.90
30206;DHT22;17010;51.306;3.150;2022-09-09T10:20:27;18.00;99.90
30206;DHT22;17010;51.306;3.150;2022-09-09T10:23:26;17.80;99.90
30206;DHT22;17010;51.306;3.150;2022-09-09T10:26:04;17.50;99.90
30206;DHT22;17010;51.306;3.150;2022-09-09T10:28:59;17.40;99.90
30206;DHT22;17010;51.306;3.150;2022-09-09T10:31:38;17.30;99.90
30206;DHT22;17010;51.306;3.150;2022-09-09T10:36:50;17.30;99.90
30206;DHT22;17010;51.306;3.150;2022-09-09T10:39:35;17.30;99.90
30206;DHT22;17010;51.306;3.150;2022-09-09T10:42:06;17.30;99.90
30206;DHT22;17010;51.306;3.150;2022-09-09T10:56:02;17.20;99.90
30206;DHT22;17010;51.306;3.150;2022-09-09T10:58:33;17.20;99.90
30206;DHT22;17010;51.306;3.150;2022-09-09T11:01:13;17.20;99.90
30206;DHT22;17010;51.306;3.150;2022-09-09T11:03:41;17.30;99.90
30206;DHT22;17010;51.306;3.150;2022-09-09T11:06:17;17.40;99.90
30206;DHT22;17010;51.306;3.150;2022-09-09T11:08:44;17.50;99.90
30206;DHT22;17010;51.306;3.150;2022-09-09T11:11:17;17.70;99.90
30206;DHT22;17010;51.306;3.150;2022-09-09T11:13:59;17.80;99.90
30206;DHT22;17010;51.306;3.150;2022-09-09T11:16:46;17.80;99.90
30206;DHT22;17010;51.306;3.150;2022-09-09T11:21:45;17.80;99.90
30206;DHT22;17010;51.306;3.150;2022-09-09T11:24:36;17.90;99.90
30206;DHT22;17010;51.306;3.150;2022-09-09T11:27:06;18.20;99.90
30206;DHT22;17010;51.306;3.150;2022-09-09T11:38:47;18.30;99.90
30206;DHT22;17010;51.306;3.150;2022-09-09T11:41:17;18.20;99.90
30206;DHT22;17010;51.306;3.150;2022-09-09T11:43:46;18.30;99.90
30206;DHT22;17010;51.306;3.150;2022-09-09T11:46:14;18.30;99.90
30206;DHT22;17010;51.306;3.150;2022-09-09T11:49:00;18.30;99.90
30206;DHT22;17010;51.306;3.150;2022-09-09T11:51:29;18.20;99.90
30206;DHT22;17010;51.306;3.150;2022-09-09T11:54:25;18.10;99.90
30206;DHT22;17010;51.306;3.150;2022-09-09T11:56:49;18.00;99.90
30206;DHT22;17010;51.306;3.150;2022-09-09T11:59:28;17.80;99.90
30206;DHT22;17010;51.306;3.150;2022-09-09T12:02:12;17.70;99.90
30206;DHT22;17010;51.306;3.150;2022-09-09T12:05:02;17.70;99.90
30206;DHT22;17010;51.306;3.150;2022-09-09T12:07:47;17.90;99.90
30206;DHT22;17010;51.306;3.150;2022-09-09T12:12:45;18.30;99.90
30206;DHT22;17010;51.306;3.150;2022-09-09T12:17:50;18.80;99.90
30206;DHT22;17010;51.306;3.150;2022-09-09T12:33:12;19.80;99.90
30206;DHT22;17010;51.306;3.150;2022-09-09T12:35:39;20.20;99.90
30206;DHT22;17010;51.306;3.150;2022-09-09T12:38:13;20.40;99.90
30206;DHT22;17010;51.306;3.150;2022-09-09T12:40:41;20.40;99.90
30206;DHT22;17010;51.306;3.150;2022-09-09T12:43:18;20.30;99.90
30206;DHT22;17010;51.306;3.150;2022-09-09T12:45:46;20.00;99.90
30206;DHT22;17010;51.306;3.150;2022-09-09T12:48:12;19.90;99.90
30206;DHT22;17010;51.306;3.150;2022-09-09T12:50:45;19.70;99.90
30206;DHT22;17010;51.306;3.150;2022-09-09T12:55:59;19.50;99.90
30206;DHT22;17010;51.306;3.150;2022-09-09T12:58:26;19.40;99.90
30206;DHT22;17010;51.306;3.150;2022-09-09T13:00:55;19.50;99.90
30206;DHT22;17010;51.306;3.150;2022-09-09T13:03:22;19.90;99.90
30206;DHT22;17010;51.306;3.150;2022-09-09T13:05:49;20.40;99.90
30206;DHT22;17010;51.306;3.150;2022-09-09T13:08:16;21.00;99.90
30206;DHT22;17010;51.306;3.150;2022-09-09T13:11:00;21.80;99.90
30206;DHT22;17010;51.306;3.150;2022-09-09T13:13:37;22.40;99.90
30206;DHT22;17010;51.306;3.150;2022-09-09T13:16:05;22.50;99.90
30206;DHT22;17010;51.306;3.150;2022-09-09T13:18:37;22.60;99.90
30206;DHT22;17010;51.306;3.150;2022-09-09T13:21:05;22.60;99.90
30206;DHT22;17010;51.306;3.150;2022-09-09T13:23:34;22.20;99.90
30206;DHT22;17010;51.306;3.150;2022-09-09T13:26:06;21.60;99.90
30206;DHT22;17010;51.306;3.150;2022-09-09T13:28:44;20.90;99.90
30206;DHT22;17010;51.306;3.150;2022-09-09T13:33:50;20.00;99.90
30206;DHT22;17010;51.306;3.150;2022-09-09T13:36:17;19.90;99.90
30206;DHT22;17010;51.306;3.150;2022-09-09T13:38:54;20.00;99.90
30206;DHT22;17010;51.306;3.150;2022-09-09T13:41:24;20.10;99.90
30206;DHT22;17010;51.306;3.150;2022-09-09T13:43:51;20.30;99.90
30206;DHT22;17010;51.306;3.150;2022-09-09T13:46:37;20.60;99.90
30206;DHT22;17010;51.306;3.150;2022-09-09T13:51:42;20.90;99.90
30206;DHT22;17010;51.306;3.150;2022-09-09T13:54:12;20.80;99.90
30206;DHT22;17010;51.306;3.150;2022-09-09T13:56:40;20.70;99.90
30206;DHT22;17010;51.306;3.150;2022-09-09T13:59:13;20.80;99.90
30206;DHT22;17010;51.306;3.150;2022-09-09T14:01:40;20.80;99.90
30206;DHT22;17010;51.306;3.150;2022-09-09T14:04:07;20.60;99.90
30206;DHT22;17010;51.306;3.150;2022-09-09T14:06:35;20.50;99.90
30206;DHT22;17010;51.306;3.150;2022-09-09T14:09:05;20.30;99.90
30206;DHT22;17010;51.306;3.150;2022-09-09T14:11:31;20.00;99.90
30206;DHT22;17010;51.306;3.150;2022-09-09T14:13:57;19.80;99.90
30206;DHT22;17010;51.306;3.150;2022-09-09T14:16:23;19.60;99.90
30206;DHT22;17010;51.306;3.150;2022-09-09T14:18:49;19.50;99.90
30206;DHT22;17010;51.306;3.150;2022-09-09T14:21:16;19.30;99.90
30206;DHT22;17010;51.306;3.150;2022-09-09T14:23:42;19.30;99.90
30206;DHT22;17010;51.306;3.150;2022-09-09T14:26:08;19.10;99.90
30206;DHT22;17010;51.306;3.150;2022-09-09T14:28:36;19.00;99.90
30206;DHT22;17010;51.306;3.150;2022-09-09T14:31:03;18.80;99.90
30206;DHT22;17010;51.306;3.150;2022-09-09T14:33:30;18.60;99.90
30206;DHT22;17010;51.306;3.150;2022-09-09T14:36:00;18.40;99.90
30206;DHT22;17010;51.306;3.150;2022-09-09T14:38:31;18.20;99.90
30206;DHT22;17010;51.306;3.150;2022-09-09T14:41:06;18.10;99.90
30206;DHT22;17010;51.306;3.150;2022-09-09T14:43:32;18.00;99.90
30206;DHT22;17010;51.306;3.150;2022-09-09T14:46:06;18.00;99.90
30206;DHT22;17010;51.306;3.150;2022-09-09T14:48:32;17.90;99.90
30206;DHT22;17010;51.306;3.150;2022-09-09T14:51:13;17.80;99.90
30206;DHT22;17010;51.306;3.150;2022-09-09T14:53:41;17.80;99.90
30206;DHT22;17010;51.306;3.150;2022-09-09T14:56:16;17.80;99.90
30206;DHT22;17010;51.306;3.150;2022-09-09T14:58:43;17.80;99.90
30206;DHT22;17010;51.306;3.150;2022-09-09T15:01:11;17.80;99.90
30206;DHT22;17010;51.306;3.150;2022-09-09T15:03:38;17.70;99.90
30206;DHT22;17010;51.306;3.150;2022-09-09T15:06:10;17.50;99.90
30206;DHT22;17010;51.306;3.150;2022-09-09T15:08:38;17.30;99.90
30206;DHT22;17010;51.306;3.150;2022-09-09T15:11:13;17.10;99.90
30206;DHT22;17010;51.306;3.150;2022-09-09T15:13:41;17.00;99.90
30206;DHT22;17010;51.306;3.150;2022-09-09T15:16:18;17.00;99.90
30206;DHT22;17010;51.306;3.150;2022-09-09T15:18:46;17.00;99.90
30206;DHT22;17010;51.306;3.150;2022-09-09T15:21:14;17.00;99.90
30206;DHT22;17010;51.306;3.150;2022-09-09T15:23:41;17.10;99.90
30206;DHT22;17010;51.306;3.150;2022-09-09T15:26:08;17.10;99.90
30206;DHT22;17010;51.306;3.150;2022-09-09T15:28:36;17.10;99.90
30206;DHT22;17010;51.306;3.150;2022-09-09T15:31:09;17.20;99.90
30206;DHT22;17010;51.306;3.150;2022-09-09T15:33:36;17.20;99.90
30206;DHT22;17010;51.306;3.150;2022-09-09T15:36:27;17.30;99.90
30206;DHT22;17010;51.306;3.150;2022-09-09T15:38:59;17.40;99.90
30206;DHT22;17010;51.306;3.150;2022-09-09T15:41:26;17.50;99.90
30206;DHT22;17010;51.306;3.150;2022-09-09T15:43:54;17.50;99.90
30206;DHT22;17010;51.306;3.150;2022-09-09T15:46:37;17.60;99.90
30206;DHT22;17010;51.306;3.150;2022-09-09T15:49:11;17.70;99.90
30206;DHT22;17010;51.306;3.150;2022-09-09T15:51:39;17.80;99.90
30206;DHT22;17010;51.306;3.150;2022-09-09T15:54:05;17.80;99.90
30206;DHT22;17010;51.306;3.150;2022-09-09T15:56:32;17.80;99.90
30206;DHT22;17010;51.306;3.150;2022-09-09T15:58:59;17.70;99.90
30206;DHT22;17010;51.306;3.150;2022-09-09T16:01:26;17.60;99.90
30206;DHT22;17010;51.306;3.150;2022-09-09T16:03:53;17.50;99.90
30206;DHT22;17010;51.306;3.150;2022-09-09T16:06:23;17.30;99.90
30206;DHT22;17010;51.306;3.150;2022-09-09T16:08:51;17.20;99.90
30206;DHT22;17010;51.306;3.150;2022-09-09T16:11:22;17.10;99.90
30206;DHT22;17010;51.306;3.150;2022-09-09T16:13:50;17.00;99.90
30206;DHT22;17010;51.306;3.150;2022-09-09T16:16:18;16.90;99.90
30206;DHT22;17010;51.306;3.150;2022-09-09T16:18:47;16.90;99.90
30206;DHT22;17010;51.306;3.150;2022-09-09T16:21:19;17.00;99.90
30206;DHT22;17010;51.306;3.150;2022-09-09T16:23:45;16.90;99.90
30206;DHT22;17010;51.306;3.150;2022-09-09T16:26:13;16.90;99.90
30206;DHT22;17010;51.306;3.150;2022-09-09T16:28:40;16.90;99.90
30206;DHT22;17010;51.306;3.150;2022-09-09T16:31:07;16.90;99.90
30206;DHT22;17010;51.306;3.150;2022-09-09T16:33:33;16.90;99.90
30206;DHT22;17010;51.306;3.150;2022-09-09T16:36:06;16.90;99.90
30206;DHT22;17010;51.306;3.150;2022-09-09T16:38:33;17.00;99.90
30206;DHT22;17010;51.306;3.150;2022-09-09T16:41:00;17.00;99.90
30206;DHT22;17010;51.306;3.150;2022-09-09T16:43:26;16.90;99.90
30206;DHT22;17010;51.306;3.150;2022-09-09T16:45:53;16.90;99.90
30206;DHT22;17010;51.306;3.150;2022-09-09T16:48:19;17.10;99.90
30206;DHT22;17010;51.306;3.150;2022-09-09T16:50:46;17.30;99.90
30206;DHT22;17010;51.306;3.150;2022-09-09T16:53:12;17.50;99.90
30206;DHT22;17010;51.306;3.150;2022-09-09T16:55:40;17.60;99.90
30206;DHT22;17010;51.306;3.150;2022-09-09T16:58:07;17.70;99.90
30206;DHT22;17010;51.306;3.150;2022-09-09T17:00:35;17.70;99.90
30206;DHT22;17010;51.306;3.150;2022-09-09T17:03:02;17.60;99.90
30206;DHT22;17010;51.306;3.150;2022-09-09T17:05:28;17.70;99.90
30206;DHT22;17010;51.306;3.150;2022-09-09T17:07:55;17.60;99.90
30206;DHT22;17010;51.306;3.150;2022-09-09T17:10:24;17.60;99.90
30206;DHT22;17010;51.306;3.150;2022-09-09T17:12:51;17.50;99.90
30206;DHT22;17010;51.306;3.150;2022-09-09T17:15:17;17.50;99.90
30206;DHT22;17010;51.306;3.150;2022-09-09T17:17:44;17.50;99.90
30206;DHT22;17010;51.306;3.150;2022-09-09T17:20:11;17.50;99.90
30206;DHT22;17010;51.306;3.150;2022-09-09T17:22:37;17.40;99.90
30206;DHT22;17010;51.306;3.150;2022-09-09T17:25:04;17.40;99.90
30206;DHT22;17010;51.306;3.150;2022-09-09T17:27:30;17.30;99.90
30206;DHT22;17010;51.306;3.150;2022-09-09T17:29:57;17.20;99.90
30206;DHT22;17010;51.306;3.150;2022-09-09T17:32:24;17.20;99.90
30206;DHT22;17010;51.306;3.150;2022-09-09T17:34:51;17.20;99.90
30206;DHT22;17010;51.306;3.150;2022-09-09T17:37:18;17.20;99.90
30206;DHT22;17010;51.306;3.150;2022-09-09T17:39:44;17.20;99.90
30206;DHT22;17010;51.306;3.150;2022-09-09T17:42:10;17.20;99.90
30206;DHT22;17010;51.306;3.150;2022-09-09T17:44:36;17.20;99.90
30206;DHT22;17010;51.306;3.150;2022-09-09T17:47:02;17.20;99.90
30206;DHT22;17010;51.306;3.150;2022-09-09T17:49:29;17.20;99.90
30206;DHT22;17010;51.306;3.150;2022-09-09T17:51:55;17.20;99.90
30206;DHT22;17010;51.306;3.150;2022-09-09T17:54:22;17.20;99.90
30206;DHT22;17010;51.306;3.150;2022-09-09T17:56:48;17.20;99.90
30206;DHT22;17010;51.306;3.150;2022-09-09T17:59:16;17.20;99.90
30206;DHT22;17010;51.306;3.150;2022-09-09T18:01:44;17.20;99.90